createdAt,value
2023-05-17T00:00:02.186Z,99860.00
2023-05-17T00:02:33.039Z,99867.00
2023-05-17T00:05:02.445Z,99870.00
2023-05-17T00:07:31.805Z,99874.00
2023-05-17T00:09:59.805Z,99856.00
2023-05-17T00:12:27.748Z,99872.00
2023-05-17T00:14:55.688Z,99876.00
2023-05-17T00:17:23.701Z,99883.00
2023-05-17T00:19:51.735Z,99874.00
2023-05-17T00:22:19.687Z,99885.00
2023-05-17T00:24:48.947Z,99889.00
2023-05-17T00:27:16.912Z,99890.00
2023-05-17T00:29:44.881Z,99891.00
2023-05-17T00:32:12.945Z,99892.00
2023-05-17T00:34:40.905Z,99892.00
2023-05-17T00:37:08.897Z,99890.00
2023-05-17T00:39:36.898Z,99886.00
2023-05-17T00:42:07.767Z,99888.00
2023-05-17T00:44:35.787Z,99882.00
2023-05-17T00:47:04.086Z,99885.00
2023-05-17T00:49:32.154Z,99889.00
2023-05-17T00:52:01.089Z,99885.00
2023-05-17T00:54:29.554Z,99888.00
2023-05-17T00:56:59.371Z,99886.00
2023-05-17T00:59:30.635Z,99890.00
2023-05-17T01:01:59.484Z,99895.00
2023-05-17T01:04:27.463Z,99890.00
2023-05-17T01:06:56.053Z,99895.00
2023-05-17T01:09:24.132Z,99895.00
2023-05-17T01:12:07.180Z,99895.00
2023-05-17T01:14:51.753Z,99893.00
2023-05-17T01:17:32.078Z,99890.00
2023-05-17T01:20:09.394Z,99900.00
2023-05-17T01:22:52.361Z,99907.00
2023-05-17T01:25:51.064Z,99903.00
2023-05-17T01:28:22.605Z,99906.00
2023-05-17T01:30:54.117Z,99902.00
2023-05-17T01:33:23.056Z,99913.00
2023-05-17T01:35:51.062Z,99912.00
2023-05-17T01:38:23.196Z,99896.00
2023-05-17T01:41:05.898Z,99903.00
2023-05-17T01:43:45.609Z,99890.00
2023-05-17T01:46:23.864Z,99888.00
2023-05-17T01:49:06.255Z,99896.00
2023-05-17T01:51:40.864Z,99895.00
2023-05-17T01:54:12.298Z,99904.00
2023-05-17T01:56:49.775Z,99884.00
2023-05-17T01:59:25.338Z,99909.00
2023-05-17T02:01:58.138Z,99915.00
2023-05-17T02:04:26.103Z,99904.00
2023-05-17T02:06:54.213Z,99905.00
2023-05-17T02:09:22.188Z,99908.00
2023-05-17T02:11:50.346Z,99903.00
2023-05-17T02:14:19.810Z,99910.00
2023-05-17T02:16:47.827Z,99910.00
2023-05-17T02:19:15.945Z,99911.00
2023-05-17T02:21:44.016Z,99909.00
2023-05-17T02:24:11.974Z,99912.00
2023-05-17T02:26:42.882Z,99913.00
2023-05-17T02:29:11.288Z,99912.00
2023-05-17T02:31:41.056Z,99918.00
2023-05-17T02:34:09.118Z,99928.00
2023-05-17T02:36:37.086Z,99930.00
2023-05-17T02:39:06.150Z,99931.00
2023-05-17T02:41:34.134Z,99920.00
2023-05-17T02:44:02.191Z,99926.00
2023-05-17T02:46:30.111Z,99929.00
2023-05-17T02:48:59.488Z,99931.00
2023-05-17T02:51:27.447Z,99922.00
2023-05-17T02:53:55.645Z,99938.00
2023-05-17T02:56:23.611Z,99923.00
2023-05-17T02:58:51.549Z,99931.00
2023-05-17T03:01:19.759Z,99944.00
2023-05-17T03:03:47.782Z,99939.00
2023-05-17T03:06:17.416Z,99940.00
2023-05-17T03:08:45.445Z,99938.00
2023-05-17T03:11:13.516Z,99941.00
2023-05-17T03:13:41.858Z,99951.00
2023-05-17T03:16:09.873Z,99945.00
2023-05-17T03:18:37.989Z,99951.00
2023-05-17T03:21:06.049Z,99951.00
2023-05-17T03:23:36.238Z,99966.00
2023-05-17T03:26:04.748Z,99968.00
2023-05-17T03:28:37.640Z,99971.00
2023-05-17T03:31:06.372Z,99972.00
2023-05-17T03:33:35.735Z,99975.00
2023-05-17T03:36:04.579Z,99981.00
2023-05-17T03:38:32.865Z,99982.00
2023-05-17T03:41:02.266Z,99982.00
2023-05-17T03:43:30.514Z,99981.00
2023-05-17T03:46:00.128Z,99977.00
2023-05-17T03:48:29.755Z,99981.00
2023-05-17T03:50:57.880Z,99983.00
2023-05-17T03:53:25.898Z,100000.00
2023-05-17T03:55:53.883Z,100000.00
2023-05-17T03:58:23.913Z,99990.00
2023-05-17T04:00:52.270Z,99999.00
2023-05-17T04:03:20.837Z,99996.00
2023-05-17T04:05:49.496Z,99999.00
2023-05-17T04:08:17.691Z,100004.00
2023-05-17T04:10:45.764Z,100009.00
2023-05-17T04:13:13.729Z,100006.00
2023-05-17T04:15:43.162Z,100017.00
2023-05-17T04:18:11.229Z,100007.00
2023-05-17T04:20:40.452Z,100003.00
2023-05-17T04:23:08.482Z,100011.00
2023-05-17T04:25:37.786Z,100015.00
2023-05-17T04:28:05.959Z,100019.00
2023-05-17T04:30:34.230Z,100020.00
2023-05-17T04:33:03.861Z,100023.00
2023-05-17T04:35:32.058Z,100012.00
2023-05-17T04:38:00.642Z,100019.00
2023-05-17T04:40:28.705Z,100019.00
2023-05-17T04:42:57.056Z,100018.00
2023-05-17T04:45:26.585Z,100015.00
2023-05-17T04:47:56.476Z,100022.00
2023-05-17T04:50:27.192Z,100026.00
2023-05-17T04:52:55.386Z,100022.00
2023-05-17T04:55:23.679Z,100017.00
2023-05-17T04:57:51.765Z,100027.00
2023-05-17T05:00:21.026Z,100032.00
2023-05-17T05:02:55.643Z,100026.00
2023-05-17T05:05:25.962Z,100037.00
2023-05-17T05:07:54.232Z,100037.00
2023-05-17T05:10:22.826Z,100040.00
2023-05-17T05:12:51.121Z,100039.00
2023-05-17T05:15:19.899Z,100042.00
2023-05-17T05:17:54.367Z,100047.00
2023-05-17T05:20:22.472Z,100043.00
2023-05-17T05:22:51.768Z,100055.00
2023-05-17T05:25:21.176Z,100051.00
2023-05-17T05:27:49.180Z,100057.00
2023-05-17T05:30:22.175Z,100058.00
2023-05-17T05:32:54.424Z,100041.00
2023-05-17T05:35:26.404Z,100070.00
2023-05-17T05:37:56.399Z,100063.00
2023-05-17T05:40:24.884Z,100058.00
2023-05-17T05:42:53.176Z,100064.00
2023-05-17T05:45:22.640Z,100076.00
2023-05-17T05:47:53.373Z,100063.00
2023-05-17T05:50:21.554Z,100068.00
2023-05-17T05:52:53.434Z,100052.00
2023-05-17T05:55:24.271Z,100066.00
2023-05-17T05:57:52.441Z,100062.00
2023-05-17T06:00:21.183Z,100060.00
2023-05-17T06:02:49.122Z,100066.00
2023-05-17T06:05:17.270Z,100065.00
2023-05-17T06:07:45.254Z,100068.00
2023-05-17T06:10:13.254Z,100074.00
2023-05-17T06:12:42.598Z,100080.00
2023-05-17T06:15:11.938Z,100087.00
2023-05-17T06:17:39.990Z,100090.00
2023-05-17T06:20:10.118Z,100101.00
2023-05-17T06:22:38.107Z,100103.00
2023-05-17T06:25:07.227Z,100104.00
2023-05-17T06:27:35.361Z,100107.00
2023-05-17T06:30:07.503Z,100107.00
2023-05-17T06:32:35.876Z,100110.00
2023-05-17T06:35:04.629Z,100111.00
2023-05-17T06:37:33.154Z,100122.00
2023-05-17T06:40:14.949Z,100119.00
2023-05-17T06:42:44.986Z,100121.00
2023-05-17T06:45:15.580Z,100115.00
2023-05-17T06:47:43.764Z,100112.00
2023-05-17T06:50:12.379Z,100125.00
2023-05-17T06:52:40.617Z,100137.00
2023-05-17T06:55:09.706Z,100127.00
2023-05-17T06:57:38.254Z,100134.00
2023-05-17T07:00:10.913Z,100135.00
2023-05-17T07:02:40.408Z,100128.00
2023-05-17T07:05:09.512Z,100135.00
2023-05-17T07:07:37.643Z,100140.00
2023-05-17T07:10:08.345Z,100133.00
2023-05-17T07:12:36.402Z,100133.00
2023-05-17T07:15:04.825Z,100134.00
2023-05-17T07:17:32.911Z,100137.00
2023-05-17T07:20:02.479Z,100138.00
2023-05-17T07:22:30.650Z,100144.00
2023-05-17T07:24:58.928Z,100134.00
2023-05-17T07:27:27.084Z,100126.00
2023-05-17T07:29:55.395Z,100142.00
2023-05-17T07:32:23.513Z,100134.00
2023-05-17T07:34:51.614Z,100136.00
2023-05-17T07:37:20.947Z,100139.00
2023-05-17T07:39:48.981Z,100136.00
2023-05-17T07:42:17.053Z,100140.00
2023-05-17T07:44:45.090Z,100137.00
2023-05-17T07:47:13.038Z,100135.00
2023-05-17T07:49:41.016Z,100118.00
2023-05-17T07:52:09.239Z,100128.00
2023-05-17T07:54:38.540Z,100129.00
2023-05-17T07:57:06.668Z,100137.00
2023-05-17T07:59:34.667Z,100132.00
2023-05-17T08:02:02.843Z,100130.00
2023-05-17T08:04:30.951Z,100140.00
2023-05-17T08:07:00.922Z,100136.00
2023-05-17T08:09:31.657Z,100138.00
2023-05-17T08:12:01.822Z,100145.00
2023-05-17T08:14:29.757Z,100145.00
2023-05-17T08:16:57.704Z,100144.00
2023-05-17T08:19:27.458Z,100147.00
2023-05-17T08:21:56.503Z,100151.00
2023-05-17T08:24:24.447Z,100151.00
2023-05-17T08:26:52.627Z,100144.00
2023-05-17T08:29:21.875Z,100156.00
2023-05-17T08:31:49.835Z,100148.00
2023-05-17T08:34:17.864Z,100156.00
2023-05-17T08:36:45.920Z,100142.00
2023-05-17T08:39:14.016Z,100153.00
2023-05-17T08:41:42.124Z,100147.00
2023-05-17T08:44:11.707Z,100146.00
2023-05-17T08:46:43.991Z,100146.00
2023-05-17T08:49:15.116Z,100130.00
2023-05-17T08:51:44.091Z,100138.00
2023-05-17T08:54:12.360Z,100130.00
2023-05-17T08:56:43.987Z,100137.00
2023-05-17T08:59:13.565Z,100134.00
2023-05-17T09:01:47.084Z,100143.00
2023-05-17T09:04:16.984Z,100134.00
2023-05-17T09:06:45.810Z,100135.00
2023-05-17T09:09:13.811Z,100142.00
2023-05-17T09:11:41.798Z,100155.00
2023-05-17T09:14:10.118Z,100145.00
2023-05-17T09:16:39.303Z,100148.00
2023-05-17T09:19:09.967Z,100146.00
2023-05-17T09:21:38.583Z,100142.00
2023-05-17T09:24:08.577Z,100145.00
2023-05-17T09:26:41.423Z,100145.00
2023-05-17T09:29:11.560Z,100147.00
2023-05-17T09:31:40.174Z,100149.00
2023-05-17T09:34:11.737Z,100157.00
2023-05-17T09:36:43.867Z,100144.00
2023-05-17T09:39:13.607Z,100162.00
2023-05-17T09:41:45.133Z,100158.00
2023-05-17T09:44:15.218Z,100152.00
2023-05-17T09:46:47.332Z,100148.00
2023-05-17T09:49:18.402Z,100160.00
2023-05-17T09:51:50.523Z,100140.00
2023-05-17T09:54:19.222Z,100155.00
2023-05-17T09:56:55.763Z,100160.00
2023-05-17T09:59:28.645Z,100162.00
2023-05-17T10:01:58.971Z,100168.00
2023-05-17T10:04:34.411Z,100169.00
2023-05-17T10:07:02.986Z,100177.00
2023-05-17T10:09:36.848Z,100191.00
2023-05-17T10:12:07.939Z,100188.00
2023-05-17T10:14:37.699Z,100181.00
2023-05-17T10:17:07.423Z,100186.00
2023-05-17T10:19:38.160Z,100195.00
2023-05-17T10:22:21.671Z,100179.00
2023-05-17T10:24:52.589Z,100190.00
2023-05-17T10:27:22.640Z,100183.00
2023-05-17T10:29:54.404Z,100188.00
2023-05-17T10:32:27.165Z,100181.00
2023-05-17T10:35:10.550Z,100186.00
2023-05-17T10:37:42.067Z,100193.00
2023-05-17T10:40:13.267Z,100183.00
2023-05-17T10:42:47.015Z,100184.00
2023-05-17T10:45:15.712Z,100183.00
2023-05-17T10:47:46.049Z,100198.00
2023-05-17T10:50:22.158Z,100199.00
2023-05-17T10:52:52.080Z,100186.00
2023-05-17T10:55:22.141Z,100164.00
2023-05-17T10:58:18.764Z,100174.00
2023-05-17T11:00:49.495Z,100178.00
2023-05-17T11:03:20.380Z,100171.00
2023-05-17T11:06:24.494Z,100175.00
2023-05-17T11:09:16.039Z,100178.00
2023-05-17T11:12:06.060Z,100182.00
2023-05-17T11:14:53.200Z,100176.00
2023-05-17T11:17:25.042Z,100176.00
2023-05-17T11:20:31.436Z,100171.00
2023-05-17T11:23:04.259Z,100173.00
2023-05-17T11:25:35.675Z,100167.00
2023-05-17T11:28:10.546Z,100171.00
2023-05-17T11:30:47.700Z,100156.00
2023-05-17T11:33:25.449Z,100164.00
2023-05-17T11:35:58.027Z,100167.00
2023-05-17T11:38:32.504Z,100166.00
2023-05-17T11:43:50.682Z,100164.00
2023-05-17T11:46:22.346Z,100162.00
2023-05-17T11:48:52.572Z,100160.00
2023-05-17T11:51:23.854Z,100160.00
2023-05-17T11:53:55.919Z,100160.00
2023-05-17T11:56:35.632Z,100155.00
2023-05-17T11:59:11.215Z,100152.00
2023-05-17T12:01:46.504Z,100154.00
2023-05-17T12:04:15.574Z,100159.00
2023-05-17T12:06:46.237Z,100150.00
2023-05-17T12:09:18.101Z,100160.00
2023-05-17T12:11:47.754Z,100173.00
2023-05-17T12:14:18.413Z,100166.00
2023-05-17T12:16:51.528Z,100153.00
2023-05-17T12:19:22.257Z,100151.00
2023-05-17T12:21:50.637Z,100167.00
2023-05-17T12:24:20.121Z,100167.00
2023-05-17T12:26:49.219Z,100167.00
2023-05-17T12:29:23.103Z,100172.00
2023-05-17T12:31:53.831Z,100171.00
2023-05-17T12:34:23.007Z,100174.00
2023-05-17T12:36:52.692Z,100183.00
2023-05-17T12:39:24.488Z,100172.00
2023-05-17T12:41:54.005Z,100177.00
2023-05-17T12:44:22.202Z,100180.00
2023-05-17T12:46:53.795Z,100175.00
2023-05-17T12:49:22.784Z,100165.00
2023-05-17T12:51:50.935Z,100186.00
2023-05-17T12:54:29.610Z,100184.00
2023-05-17T12:56:58.401Z,100192.00
2023-05-17T12:59:28.722Z,100193.00
2023-05-17T13:01:58.797Z,100187.00
2023-05-17T13:04:32.774Z,100192.00
2023-05-17T13:07:04.280Z,100185.00
2023-05-17T13:09:36.400Z,100188.00
2023-05-17T13:12:08.826Z,100188.00
2023-05-17T13:14:39.013Z,100191.00
2023-05-17T13:17:09.475Z,100180.00
2023-05-17T13:19:38.620Z,100191.00
2023-05-17T13:22:07.619Z,100195.00
2023-05-17T13:24:39.703Z,100198.00
2023-05-17T13:27:08.359Z,100190.00
2023-05-17T13:29:40.717Z,100190.00
2023-05-17T13:32:12.401Z,100191.00
2023-05-17T13:34:41.590Z,100197.00
2023-05-17T13:37:12.408Z,100191.00
2023-05-17T13:39:42.728Z,100193.00
2023-05-17T13:42:11.741Z,100187.00
2023-05-17T13:44:40.229Z,100181.00
2023-05-17T13:47:08.819Z,100166.00
2023-05-17T13:49:37.216Z,100174.00
2023-05-17T13:52:08.535Z,100189.00
2023-05-17T13:54:37.116Z,100182.00
2023-05-17T13:57:07.890Z,100167.00
2023-05-17T13:59:36.105Z,100176.00
2023-05-17T14:02:04.912Z,100187.00
2023-05-17T14:04:33.178Z,100184.00
2023-05-17T14:07:01.834Z,100178.00
2023-05-17T14:09:32.944Z,100178.00
2023-05-17T14:12:01.480Z,100182.00
2023-05-17T14:14:32.027Z,100181.00
2023-05-17T14:17:01.392Z,100183.00
2023-05-17T14:19:29.646Z,100192.00
2023-05-17T14:21:57.945Z,100195.00
2023-05-17T14:24:26.138Z,100202.00
2023-05-17T14:26:54.136Z,100201.00
2023-05-17T14:29:22.084Z,100203.00
2023-05-17T14:31:51.819Z,100206.00
2023-05-17T14:34:19.950Z,100216.00
2023-05-17T14:36:48.136Z,100212.00
2023-05-17T14:39:16.341Z,100200.00
2023-05-17T14:41:45.138Z,100215.00
2023-05-17T14:44:13.262Z,100205.00
2023-05-17T14:46:41.338Z,100208.00
2023-05-17T14:49:10.873Z,100213.00
2023-05-17T14:51:38.804Z,100210.00
2023-05-17T14:54:06.930Z,100213.00
2023-05-17T14:56:35.193Z,100217.00
2023-05-17T14:59:03.795Z,100220.00
2023-05-17T15:01:31.790Z,100226.00
2023-05-17T15:03:59.988Z,100214.00
2023-05-17T15:06:30.272Z,100216.00
2023-05-17T15:08:58.580Z,100217.00
2023-05-17T15:11:27.138Z,100212.00
2023-05-17T15:13:55.280Z,100213.00
2023-05-17T15:16:23.475Z,100226.00
2023-05-17T15:18:52.287Z,100220.00
2023-05-17T15:21:21.121Z,100210.00
2023-05-17T15:23:51.073Z,100222.00
2023-05-17T15:26:19.062Z,100213.00
2023-05-17T15:28:49.771Z,100213.00
2023-05-17T15:31:18.127Z,100212.00
2023-05-17T15:33:46.147Z,100210.00
2023-05-17T15:36:16.206Z,100207.00
2023-05-17T15:38:44.340Z,100203.00
2023-05-17T15:41:19.073Z,100200.00
2023-05-17T15:43:47.053Z,100201.00
2023-05-17T15:46:15.006Z,100200.00
2023-05-17T15:48:43.036Z,100199.00
2023-05-17T15:51:11.125Z,100206.00
2023-05-17T15:53:39.320Z,100200.00
2023-05-17T15:56:10.067Z,100198.00
2023-05-17T15:58:39.407Z,100196.00
2023-05-17T16:01:07.513Z,100195.00
2023-05-17T16:03:35.769Z,100191.00
2023-05-17T16:06:04.525Z,100189.00
2023-05-17T16:08:32.904Z,100197.00
2023-05-17T16:11:02.509Z,100193.00
2023-05-17T16:13:31.678Z,100182.00
2023-05-17T16:16:01.709Z,100185.00
2023-05-17T16:18:31.148Z,100186.00
2023-05-17T16:21:01.127Z,100190.00
2023-05-17T16:23:29.099Z,100197.00
2023-05-17T16:25:57.417Z,100198.00
2023-05-17T16:28:25.870Z,100192.00
2023-05-17T16:30:54.396Z,100187.00
2023-05-17T16:33:23.937Z,100197.00
2023-05-17T16:35:52.008Z,100193.00
2023-05-17T16:38:20.040Z,100194.00
2023-05-17T16:40:48.036Z,100198.00
2023-05-17T16:43:16.392Z,100194.00
2023-05-17T16:45:45.632Z,100198.00
2023-05-17T16:48:14.590Z,100194.00
2023-05-17T16:50:44.067Z,100205.00
2023-05-17T16:53:12.297Z,100206.00
2023-05-17T16:55:40.474Z,100206.00
2023-05-17T16:58:08.637Z,100214.00
2023-05-17T17:00:37.202Z,100190.00
2023-05-17T17:03:09.014Z,100205.00
2023-05-17T17:05:37.816Z,100210.00
2023-05-17T17:08:07.049Z,100217.00
2023-05-17T17:10:35.897Z,100229.00
2023-05-17T17:13:04.831Z,100218.00
2023-05-17T17:15:32.896Z,100224.00
2023-05-17T17:18:01.299Z,100226.00
2023-05-17T17:20:29.697Z,100224.00
2023-05-17T17:22:57.958Z,100225.00
2023-05-17T17:25:28.047Z,100241.00
2023-05-17T17:27:56.195Z,100227.00
2023-05-17T17:30:24.179Z,100241.00
2023-05-17T17:32:52.420Z,100239.00
2023-05-17T17:35:20.900Z,100242.00
2023-05-17T17:37:48.920Z,100242.00
2023-05-17T17:40:17.100Z,100236.00
2023-05-17T17:42:47.182Z,100252.00
2023-05-17T17:45:15.266Z,100250.00
2023-05-17T17:47:43.255Z,100254.00
2023-05-17T17:50:11.914Z,100257.00
2023-05-17T17:52:39.900Z,100262.00
2023-05-17T17:55:10.809Z,100256.00
2023-05-17T17:57:38.795Z,100258.00
2023-05-17T18:00:11.744Z,100264.00
2023-05-17T18:02:40.782Z,100267.00
2023-05-17T18:05:10.251Z,100269.00
2023-05-17T18:07:39.124Z,100277.00
2023-05-17T18:10:08.849Z,100272.00
2023-05-17T18:12:36.887Z,100276.00
2023-05-17T18:15:05.907Z,100281.00
2023-05-17T18:17:35.271Z,100286.00
2023-05-17T18:20:03.327Z,100288.00
2023-05-17T18:22:31.512Z,100282.00
2023-05-17T18:24:59.695Z,100285.00
2023-05-17T18:27:27.690Z,100285.00
2023-05-17T18:29:55.689Z,100288.00
2023-05-17T18:32:23.719Z,100298.00
2023-05-17T18:34:53.183Z,100288.00
2023-05-17T18:37:21.176Z,100292.00
2023-05-17T18:39:49.241Z,100288.00
2023-05-17T18:42:17.372Z,100291.00
2023-05-17T18:44:45.316Z,100286.00
2023-05-17T18:47:13.345Z,100301.00
2023-05-17T18:49:44.967Z,100307.00
2023-05-17T18:52:14.336Z,100303.00
2023-05-17T18:54:42.330Z,100315.00
2023-05-17T18:57:11.849Z,100312.00
2023-05-17T18:59:39.868Z,100316.00
2023-05-17T19:02:08.687Z,100330.00
2023-05-17T19:04:37.266Z,100320.00
2023-05-17T19:07:05.795Z,100330.00
2023-05-17T19:09:35.182Z,100325.00
2023-05-17T19:12:03.446Z,100341.00
2023-05-17T19:14:32.071Z,100339.00
2023-05-17T19:17:00.264Z,100340.00
2023-05-17T19:19:28.406Z,100342.00
2023-05-17T19:21:56.451Z,100347.00
2023-05-17T19:24:24.392Z,100351.00
2023-05-17T19:26:53.708Z,100347.00
2023-05-17T19:29:22.215Z,100350.00
2023-05-17T19:31:50.522Z,100355.00
2023-05-17T19:34:18.663Z,100351.00
2023-05-17T19:36:46.637Z,100360.00
2023-05-17T19:39:15.128Z,100349.00
2023-05-17T19:41:43.218Z,100355.00
2023-05-17T19:44:15.535Z,100359.00
2023-05-17T19:46:43.895Z,100363.00
2023-05-17T19:49:12.410Z,100365.00
2023-05-17T19:51:40.478Z,100369.00
2023-05-17T19:54:08.532Z,100373.00
2023-05-17T19:56:36.556Z,100383.00
2023-05-17T19:59:04.814Z,100375.00
2023-05-17T20:01:34.378Z,100373.00
2023-05-17T20:04:02.646Z,100378.00
2023-05-17T20:06:30.892Z,100384.00
2023-05-17T20:08:59.296Z,100387.00
2023-05-17T20:11:27.621Z,100390.00
2023-05-17T20:13:55.735Z,100394.00
2023-05-17T20:16:27.938Z,100393.00
2023-05-17T20:18:59.273Z,100393.00
2023-05-17T20:21:27.595Z,100381.00
2023-05-17T20:24:01.648Z,100395.00
2023-05-17T20:26:32.091Z,100396.00
2023-05-17T20:29:00.840Z,100388.00
2023-05-17T20:31:29.188Z,100390.00
2023-05-17T20:33:58.643Z,100385.00
2023-05-17T20:36:27.498Z,100389.00
2023-05-17T20:38:55.760Z,100393.00
2023-05-17T20:41:24.095Z,100394.00
2023-05-17T20:43:52.535Z,100387.00
2023-05-17T20:46:21.042Z,100391.00
2023-05-17T20:48:49.890Z,100391.00
2023-05-17T20:51:19.629Z,100398.00
2023-05-17T20:53:47.847Z,100391.00
2023-05-17T20:56:16.193Z,100384.00
2023-05-17T20:58:44.261Z,100391.00
2023-05-17T21:01:12.460Z,100392.00
2023-05-17T21:03:41.168Z,100394.00
2023-05-17T21:06:09.337Z,100393.00
2023-05-17T21:08:39.767Z,100398.00
2023-05-17T21:11:07.862Z,100393.00
2023-05-17T21:13:36.147Z,100398.00
2023-05-17T21:16:04.774Z,100407.00
2023-05-17T21:18:33.020Z,100409.00
2023-05-17T21:21:01.212Z,100412.00
2023-05-17T21:23:29.196Z,100403.00
2023-05-17T21:25:58.844Z,100410.00
2023-05-17T21:28:27.081Z,100396.00
2023-05-17T21:30:55.346Z,100413.00
2023-05-17T21:33:23.368Z,100410.00
2023-05-17T21:35:51.755Z,100411.00
2023-05-17T21:38:19.809Z,100414.00
2023-05-17T21:40:47.903Z,100410.00
2023-05-17T21:43:17.175Z,100417.00
2023-05-17T21:45:45.482Z,100419.00
2023-05-17T21:48:13.551Z,100421.00
2023-05-17T21:50:41.578Z,100413.00
2023-05-17T21:53:09.528Z,100418.00
2023-05-17T21:55:56.311Z,100421.00
2023-05-17T21:58:26.878Z,100425.00
2023-05-17T22:00:54.800Z,100421.00
2023-05-17T22:03:23.035Z,100423.00
2023-05-17T22:05:52.281Z,100425.00
2023-05-17T22:08:20.210Z,100422.00
2023-05-17T22:10:50.114Z,100420.00
2023-05-17T22:13:19.087Z,100429.00
2023-05-17T22:15:48.743Z,100432.00
2023-05-17T22:18:19.172Z,100422.00
2023-05-17T22:20:47.205Z,100433.00
2023-05-17T22:23:15.316Z,100439.00
2023-05-17T22:25:43.226Z,100427.00
2023-05-17T22:28:11.219Z,100433.00
2023-05-17T22:30:39.227Z,100431.00
2023-05-17T22:33:08.490Z,100432.00
2023-05-17T22:35:36.414Z,100437.00
2023-05-17T22:38:04.288Z,100436.00
2023-05-17T22:40:32.523Z,100442.00
2023-05-17T22:43:01.338Z,100433.00
2023-05-17T22:45:33.102Z,100438.00
2023-05-17T22:48:03.051Z,100434.00
2023-05-17T22:50:32.842Z,100426.00
2023-05-17T22:53:01.215Z,100440.00
2023-05-17T22:55:29.462Z,100438.00
2023-05-17T22:57:58.074Z,100437.00
2023-05-17T23:00:26.385Z,100439.00
2023-05-17T23:02:54.492Z,100437.00
2023-05-17T23:05:22.698Z,100438.00
2023-05-17T23:07:51.947Z,100440.00
2023-05-17T23:10:20.183Z,100439.00
2023-05-17T23:12:49.645Z,100437.00
2023-05-17T23:15:18.866Z,100438.00
2023-05-17T23:17:47.235Z,100438.00
2023-05-17T23:20:15.122Z,100441.00
2023-05-17T23:22:43.198Z,100443.00
2023-05-17T23:25:12.527Z,100437.00
2023-05-17T23:27:40.741Z,100433.00
2023-05-17T23:30:09.812Z,100438.00
2023-05-17T23:32:37.879Z,100431.00
2023-05-17T23:35:06.938Z,100436.00
2023-05-17T23:37:35.456Z,100425.00
2023-05-17T23:40:05.916Z,100425.00
2023-05-17T23:42:35.123Z,100434.00
2023-05-17T23:45:03.952Z,100430.00
2023-05-17T23:47:33.590Z,100429.00
2023-05-17T23:50:02.861Z,100430.00
2023-05-17T23:52:32.528Z,100432.00
2023-05-17T23:55:01.691Z,100438.00
2023-05-17T23:57:29.800Z,100435.00
2023-05-17T23:59:59.107Z,100438.00
